createdAt,value
2018-05-01T00:00:18.581Z,8.99
2018-05-01T00:00:44.752Z,8.97
2018-05-01T00:01:10.886Z,8.89
2018-05-01T00:01:37.028Z,9.02
2018-05-01T00:02:03.193Z,9
2018-05-01T00:02:29.338Z,8.94
2018-05-01T00:02:55.478Z,8.88
2018-05-01T00:03:21.635Z,8.99
2018-05-01T00:03:47.770Z,8.82
2018-05-01T00:04:13.936Z,8.87
2018-05-01T00:04:40.090Z,9
2018-05-01T00:05:06.246Z,8.87
2018-05-01T00:05:32.386Z,8.85
2018-05-01T00:05:58.514Z,8.84
2018-05-01T00:06:24.662Z,8.79
2018-05-01T00:06:50.794Z,8.82
2018-05-01T00:07:16.926Z,8.89
2018-05-01T00:07:43.058Z,8.92
2018-05-01T00:08:09.198Z,8.92
2018-05-01T00:08:35.354Z,8.85
2018-05-01T00:09:01.491Z,8.91
2018-05-01T00:09:27.658Z,8.85
2018-05-01T00:09:53.789Z,8.85
2018-05-01T00:10:19.949Z,8.84
2018-05-01T00:10:46.086Z,8.79
2018-05-01T00:11:12.243Z,8.92
2018-05-01T00:11:38.382Z,8.84
2018-05-01T00:12:04.512Z,8.85
2018-05-01T00:12:30.648Z,8.79
2018-05-01T00:12:56.783Z,8.79
2018-05-01T00:13:22.921Z,8.82
2018-05-01T00:13:49.055Z,8.82
2018-05-01T00:14:15.195Z,8.85
2018-05-01T00:14:41.325Z,8.82
2018-05-01T00:15:07.489Z,8.79
2018-05-01T00:15:33.624Z,8.85
2018-05-01T00:15:59.767Z,8.88
2018-05-01T00:16:25.897Z,8.82
2018-05-01T00:16:52.033Z,8.73
2018-05-01T00:17:18.171Z,8.82
2018-05-01T00:17:44.312Z,8.76
2018-05-01T00:18:10.447Z,8.76
2018-05-01T00:18:36.584Z,8.73
2018-05-01T00:19:02.727Z,8.73
2018-05-01T00:19:28.884Z,8.73
2018-05-01T00:19:55.018Z,8.71
2018-05-01T00:20:21.157Z,8.69
2018-05-01T00:20:47.290Z,8.76
2018-05-01T00:21:13.429Z,8.79
2018-05-01T00:21:39.565Z,8.74
2018-05-01T00:22:05.719Z,8.81
2018-05-01T00:22:31.855Z,8.76
2018-05-01T00:22:57.986Z,8.7
2018-05-01T00:23:24.127Z,8.71
2018-05-01T00:23:50.277Z,8.71
2018-05-01T00:24:16.411Z,8.78
2018-05-01T00:24:42.544Z,8.78
2018-05-01T00:25:08.702Z,8.74
2018-05-01T00:25:34.866Z,8.71
2018-05-01T00:26:01.060Z,8.7
2018-05-01T00:26:27.201Z,8.6
2018-05-01T00:26:53.340Z,8.66
2018-05-01T00:27:19.485Z,8.61
2018-05-01T00:27:45.621Z,8.63
2018-05-01T00:28:11.784Z,8.63
2018-05-01T00:28:37.925Z,8.55
2018-05-01T00:29:04.090Z,8.49
2018-05-01T00:29:30.273Z,8.51
2018-05-01T00:29:56.449Z,8.6
2018-05-01T00:30:22.603Z,8.67
2018-05-01T00:30:48.752Z,8.58
2018-05-01T00:31:14.911Z,8.55
2018-05-01T00:31:41.051Z,8.53
2018-05-01T00:32:07.213Z,8.52
2018-05-01T00:32:33.355Z,8.53
2018-05-01T00:32:59.486Z,8.58
2018-05-01T00:33:25.653Z,8.6
2018-05-01T00:33:51.782Z,8.58
2018-05-01T00:34:17.925Z,8.6
2018-05-01T00:34:44.058Z,8.53
2018-05-01T00:35:10.204Z,8.6
2018-05-01T00:35:36.334Z,8.63
2018-05-01T00:36:02.470Z,8.63
2018-05-01T00:36:28.611Z,8.55
2018-05-01T00:36:54.744Z,8.52
2018-05-01T00:37:20.901Z,8.58
2018-05-01T00:37:47.071Z,8.56
2018-05-01T00:38:13.204Z,8.53
2018-05-01T00:38:39.338Z,8.48
2018-05-01T00:39:05.480Z,8.42
2018-05-01T00:39:31.615Z,8.48
2018-05-01T00:39:57.752Z,8.48
2018-05-01T00:40:23.889Z,8.46
2018-05-01T00:40:50.049Z,8.41
2018-05-01T00:41:16.191Z,8.46
2018-05-01T00:41:42.324Z,8.46
2018-05-01T00:42:08.454Z,8.44
2018-05-01T00:42:34.623Z,8.41
2018-05-01T00:43:00.763Z,8.42
2018-05-01T00:43:26.916Z,8.46
2018-05-01T00:43:53.057Z,8.45
2018-05-01T00:44:19.191Z,8.45
2018-05-01T00:44:45.359Z,8.52
2018-05-01T00:45:11.499Z,8.42
2018-05-01T00:45:37.638Z,8.41
2018-05-01T00:46:03.778Z,8.44
2018-05-01T00:46:29.918Z,8.37
2018-05-01T00:46:56.050Z,8.41
2018-05-01T00:47:22.219Z,8.33
2018-05-01T00:47:48.365Z,8.38
2018-05-01T00:48:14.498Z,8.44
2018-05-01T00:48:40.656Z,8.37
2018-05-01T00:49:06.819Z,8.36
2018-05-01T00:49:32.945Z,8.34
2018-05-01T00:49:59.086Z,8.26
2018-05-01T00:50:25.218Z,8.37
2018-05-01T00:50:51.355Z,8.33
2018-05-01T00:51:23.772Z,8.31
2018-05-01T00:51:50.002Z,8.38
2018-05-01T00:52:16.086Z,8.34
2018-05-01T00:52:42.231Z,8.34
2018-05-01T00:53:08.358Z,8.3
2018-05-01T00:53:34.500Z,8.31
2018-05-01T00:54:00.634Z,8.28
2018-05-01T00:54:26.772Z,8.3
2018-05-01T00:54:52.912Z,8.27
2018-05-01T00:55:19.047Z,8.19
2018-05-01T00:55:45.189Z,8.23
2018-05-01T00:56:11.324Z,8.18
2018-05-01T00:56:37.485Z,8.15
2018-05-01T00:57:03.651Z,8.16
2018-05-01T00:57:29.786Z,8.18
2018-05-01T00:57:55.930Z,8.18
2018-05-01T00:58:22.061Z,8.16
2018-05-01T00:58:48.197Z,8.16
2018-05-01T00:59:14.358Z,8.2
2018-05-01T00:59:40.493Z,8.19
2018-05-01T01:00:06.637Z,8.28
2018-05-01T01:00:32.769Z,8.27
2018-05-01T01:00:58.907Z,8.24
2018-05-01T01:01:25.041Z,8.16
2018-05-01T01:01:51.203Z,8.23
2018-05-01T01:02:17.337Z,8.18
2018-05-01T01:02:43.471Z,8.12
2018-05-01T01:03:09.612Z,8.09
2018-05-01T01:03:35.777Z,8.2
2018-05-01T01:04:01.885Z,8.13
2018-05-01T01:04:28.044Z,8.16
2018-05-01T01:04:54.180Z,8.08
2018-05-01T01:05:20.341Z,8.12
2018-05-01T01:05:46.479Z,8.1
2018-05-01T01:06:12.612Z,8.15
2018-05-01T01:06:38.751Z,8.12
2018-05-01T01:07:04.881Z,8.16
2018-05-01T01:07:31.071Z,8.16
2018-05-01T01:07:57.227Z,8.13
2018-05-01T01:08:23.368Z,8.19
2018-05-01T01:08:49.525Z,8.16
2018-05-01T01:09:15.668Z,8.12
2018-05-01T01:09:41.807Z,8.16
2018-05-01T01:10:07.945Z,8.15
2018-05-01T01:10:34.078Z,8.1
2018-05-01T01:11:00.213Z,8.1
2018-05-01T01:11:26.352Z,8.15
2018-05-01T01:11:52.516Z,8.12
2018-05-01T01:12:18.655Z,8.16
2018-05-01T01:12:44.793Z,8.13
2018-05-01T01:13:10.962Z,8.16
2018-05-01T01:13:37.093Z,8.2
2018-05-01T01:14:03.239Z,8.15
2018-05-01T01:14:29.376Z,8.12
2018-05-01T01:14:55.508Z,8.13
2018-05-01T01:15:21.644Z,8.15
2018-05-01T01:15:47.775Z,8.1
2018-05-01T01:16:13.942Z,8.12
2018-05-01T01:16:40.073Z,8.12
2018-05-01T01:17:06.291Z,8.1
2018-05-01T01:17:32.365Z,8.06
2018-05-01T01:17:58.496Z,8.08
2018-05-01T01:18:24.640Z,8.1
2018-05-01T01:18:50.827Z,8.08
2018-05-01T01:19:16.994Z,8.06
2018-05-01T01:19:43.098Z,8.03
2018-05-01T01:20:09.256Z,7.98
2018-05-01T01:20:35.422Z,7.98
2018-05-01T01:21:01.602Z,8.01
2018-05-01T01:21:27.740Z,7.98
2018-05-01T01:21:53.876Z,8.03
2018-05-01T01:22:20.015Z,7.97
2018-05-01T01:22:46.146Z,7.97
2018-05-01T01:23:12.301Z,8.01
2018-05-01T01:23:38.440Z,7.98
2018-05-01T01:24:04.629Z,8.01
2018-05-01T01:24:30.806Z,8
2018-05-01T01:24:56.966Z,8.09
2018-05-01T01:25:23.099Z,8.1
2018-05-01T01:25:49.239Z,7.98
2018-05-01T01:26:15.395Z,8.03
2018-05-01T01:26:41.544Z,7.98
2018-05-01T01:27:07.676Z,8
2018-05-01T01:27:33.844Z,8.01
2018-05-01T01:28:00.008Z,8
2018-05-01T01:28:26.151Z,7.97
2018-05-01T01:28:52.284Z,8.01
2018-05-01T01:29:18.416Z,8
2018-05-01T01:29:44.549Z,8.05
2018-05-01T01:30:10.690Z,8.05
2018-05-01T01:30:36.817Z,8.01
2018-05-01T01:31:02.980Z,8.03
2018-05-01T01:31:29.115Z,7.95
2018-05-01T01:31:55.240Z,7.95
2018-05-01T01:32:21.407Z,7.97
2018-05-01T01:32:47.543Z,8.03
2018-05-01T01:33:13.694Z,8
2018-05-01T01:33:39.826Z,7.95
2018-05-01T01:34:05.964Z,8
2018-05-01T01:34:32.106Z,7.94
2018-05-01T01:34:58.246Z,7.91
2018-05-01T01:35:24.407Z,8
2018-05-01T01:35:50.539Z,7.97
2018-05-01T01:36:16.678Z,7.98
2018-05-01T01:36:42.842Z,7.95
2018-05-01T01:37:08.984Z,7.97
2018-05-01T01:37:35.118Z,7.95
2018-05-01T01:38:01.260Z,7.98
2018-05-01T01:38:27.419Z,7.97
2018-05-01T01:38:53.563Z,7.95
2018-05-01T01:39:19.725Z,7.94
2018-05-01T01:39:45.881Z,7.94
2018-05-01T01:40:12.021Z,7.95
2018-05-01T01:40:38.154Z,7.98
2018-05-01T01:41:04.290Z,8.03
2018-05-01T01:41:30.422Z,7.98
2018-05-01T01:41:56.560Z,8
2018-05-01T01:42:22.702Z,7.98
2018-05-01T01:42:48.857Z,7.95
2018-05-01T01:43:14.996Z,8.05
2018-05-01T01:43:41.133Z,7.95
2018-05-01T01:44:07.269Z,7.98
2018-05-01T01:44:33.404Z,7.91
2018-05-01T01:44:59.543Z,7.97
2018-05-01T01:45:25.676Z,7.91
2018-05-01T01:45:51.819Z,7.9
2018-05-01T01:46:17.976Z,7.94
2018-05-01T01:46:44.116Z,7.9
2018-05-01T01:47:10.251Z,7.95
2018-05-01T01:47:36.415Z,7.93
2018-05-01T01:48:02.569Z,7.91
2018-05-01T01:48:28.708Z,7.8
2018-05-01T01:48:54.840Z,7.83
2018-05-01T01:49:20.982Z,7.77
2018-05-01T01:49:47.114Z,7.94
2018-05-01T01:50:13.258Z,7.9
2018-05-01T01:50:39.388Z,7.88
2018-05-01T01:51:05.528Z,7.83
2018-05-01T01:51:31.667Z,7.82
2018-05-01T01:51:57.804Z,7.88
2018-05-01T01:52:23.932Z,7.82
2018-05-01T01:52:50.063Z,7.9
2018-05-01T01:53:16.223Z,7.75
2018-05-01T01:53:42.364Z,7.9
2018-05-01T01:54:08.528Z,7.82
2018-05-01T01:54:34.669Z,7.72
2018-05-01T01:55:00.803Z,7.75
2018-05-01T01:55:26.941Z,7.88
2018-05-01T01:55:53.079Z,7.85
2018-05-01T01:56:19.253Z,7.77
2018-05-01T01:56:45.388Z,7.8
2018-05-01T01:57:11.528Z,7.8
2018-05-01T01:57:37.721Z,7.82
2018-05-01T01:58:03.854Z,7.77
2018-05-01T01:58:29.994Z,7.75
2018-05-01T01:58:56.124Z,7.8
2018-05-01T01:59:22.259Z,7.79
2018-05-01T01:59:48.401Z,7.76
2018-05-01T02:00:14.535Z,7.75
2018-05-01T02:00:40.697Z,7.72
2018-05-01T02:01:06.822Z,7.7
2018-05-01T02:01:32.968Z,7.73
2018-05-01T02:01:59.153Z,7.67
2018-05-01T02:02:25.238Z,7.8
2018-05-01T02:02:51.372Z,7.83
2018-05-01T02:03:17.510Z,7.72
2018-05-01T02:03:43.644Z,7.77
2018-05-01T02:04:09.785Z,7.73
2018-05-01T02:04:35.952Z,7.75
2018-05-01T02:05:02.076Z,7.7
2018-05-01T02:05:28.221Z,7.7
2018-05-01T02:05:54.378Z,7.7
2018-05-01T02:06:20.520Z,7.72
2018-05-01T02:06:46.684Z,7.7
2018-05-01T02:07:12.843Z,7.76
2018-05-01T02:07:38.975Z,7.7
2018-05-01T02:08:05.117Z,7.75
2018-05-01T02:08:31.254Z,7.7
2018-05-01T02:08:57.391Z,7.7
2018-05-01T02:09:23.534Z,7.72
2018-05-01T02:09:49.663Z,7.79
2018-05-01T02:10:15.798Z,7.73
2018-05-01T02:10:41.963Z,7.83
2018-05-01T02:11:08.106Z,7.85
2018-05-01T02:11:34.242Z,7.72
2018-05-01T02:12:00.405Z,7.8
2018-05-01T02:12:26.538Z,7.73
2018-05-01T02:12:52.673Z,7.82
2018-05-01T02:13:18.805Z,7.82
2018-05-01T02:13:44.940Z,7.87
2018-05-01T02:14:11.098Z,7.77
2018-05-01T02:14:37.238Z,7.77
2018-05-01T02:15:03.367Z,7.76
2018-05-01T02:15:29.504Z,7.87
2018-05-01T02:15:55.646Z,7.82
2018-05-01T02:16:21.774Z,7.88
2018-05-01T02:16:47.921Z,7.79
2018-05-01T02:17:14.067Z,7.79
2018-05-01T02:17:40.201Z,7.77
2018-05-01T02:18:06.336Z,7.77
2018-05-01T02:18:32.493Z,7.9
2018-05-01T02:18:58.636Z,7.79
2018-05-01T02:19:24.773Z,7.83
2018-05-01T02:19:50.908Z,7.73
2018-05-01T02:20:17.046Z,7.75
2018-05-01T02:20:43.221Z,7.79
2018-05-01T02:21:09.372Z,7.83
2018-05-01T02:21:35.517Z,7.7
2018-05-01T02:22:01.654Z,7.7
2018-05-01T02:22:27.818Z,7.76
2018-05-01T02:22:53.953Z,7.79
2018-05-01T02:23:20.090Z,7.82
2018-05-01T02:23:46.222Z,7.73
2018-05-01T02:24:12.361Z,7.79
2018-05-01T02:24:38.496Z,7.85
2018-05-01T02:25:04.706Z,7.76
2018-05-01T02:25:30.836Z,7.73
2018-05-01T02:25:56.970Z,7.8
2018-05-01T02:26:23.111Z,7.85
2018-05-01T02:26:49.274Z,7.83
2018-05-01T02:27:15.405Z,7.79
2018-05-01T02:27:41.642Z,7.76
2018-05-01T02:28:07.701Z,7.77
2018-05-01T02:28:33.870Z,7.77
2018-05-01T02:29:00.009Z,7.76
2018-05-01T02:29:26.142Z,7.79
2018-05-01T02:29:52.281Z,7.7
2018-05-01T02:30:18.426Z,7.7
2018-05-01T02:30:44.577Z,7.7
2018-05-01T02:31:10.772Z,7.69
2018-05-01T02:31:36.930Z,7.69
2018-05-01T02:32:03.102Z,7.66
2018-05-01T02:32:29.279Z,7.7
2018-05-01T02:32:55.500Z,7.69
2018-05-01T02:33:21.655Z,7.69
2018-05-01T02:33:47.846Z,7.73
2018-05-01T02:34:13.982Z,7.69
2018-05-01T02:34:40.146Z,7.69
2018-05-01T02:35:06.279Z,7.72
2018-05-01T02:35:32.453Z,7.7
2018-05-01T02:35:58.590Z,7.67
2018-05-01T02:36:24.764Z,7.7
2018-05-01T02:36:50.952Z,7.7
2018-05-01T02:37:17.088Z,7.7
2018-05-01T02:37:43.243Z,7.67
2018-05-01T02:38:09.412Z,7.63
2018-05-01T02:38:35.540Z,7.7
2018-05-01T02:39:01.682Z,7.75
2018-05-01T02:39:27.815Z,7.67
2018-05-01T02:39:54.014Z,7.69
2018-05-01T02:40:20.170Z,7.75
2018-05-01T02:40:46.327Z,7.7
2018-05-01T02:41:12.507Z,7.72
2018-05-01T02:41:38.664Z,7.72
2018-05-01T02:42:04.837Z,7.67
2018-05-01T02:42:31.018Z,7.73
2018-05-01T02:42:57.179Z,7.7
2018-05-01T02:43:23.343Z,7.69
2018-05-01T02:43:49.526Z,7.7
2018-05-01T02:44:15.670Z,7.69
2018-05-01T02:44:41.851Z,7.67
2018-05-01T02:45:07.992Z,7.69
2018-05-01T02:45:34.142Z,7.69
2018-05-01T02:46:00.282Z,7.66
2018-05-01T02:46:26.491Z,7.66
2018-05-01T02:46:52.675Z,7.69
2018-05-01T02:47:18.833Z,7.73
2018-05-01T02:47:44.973Z,7.72
2018-05-01T02:48:11.104Z,7.73
2018-05-01T02:48:37.267Z,7.72
2018-05-01T02:49:03.414Z,7.72
2018-05-01T02:49:29.605Z,7.7
2018-05-01T02:49:55.745Z,7.76
2018-05-01T02:50:21.900Z,7.63
2018-05-01T02:50:48.074Z,7.69
2018-05-01T02:51:14.216Z,7.72
2018-05-01T02:51:40.348Z,7.63
2018-05-01T02:52:06.489Z,7.66
2018-05-01T02:52:32.667Z,7.7
2018-05-01T02:52:58.840Z,7.73
2018-05-01T02:53:25.008Z,7.73
2018-05-01T02:53:51.197Z,7.7
2018-05-01T02:54:17.331Z,7.75
2018-05-01T02:54:43.495Z,7.77
2018-05-01T02:55:09.675Z,7.7
2018-05-01T02:55:35.837Z,7.83
2018-05-01T02:56:02.018Z,7.73
2018-05-01T02:56:28.157Z,7.73
2018-05-01T02:56:54.289Z,7.72
2018-05-01T02:57:20.478Z,7.69
2018-05-01T02:57:46.661Z,7.67
2018-05-01T02:58:12.825Z,7.67
2018-05-01T02:58:38.980Z,7.67
2018-05-01T02:59:05.161Z,7.67
2018-05-01T02:59:31.293Z,7.7
2018-05-01T02:59:57.426Z,7.72
2018-05-01T03:00:23.589Z,7.72
2018-05-01T03:00:49.723Z,7.69
2018-05-01T03:01:15.879Z,7.63
2018-05-01T03:01:42.012Z,7.7
2018-05-01T03:02:08.151Z,7.67
2018-05-01T03:02:34.312Z,7.7
2018-05-01T03:03:00.470Z,7.72
2018-05-01T03:03:26.605Z,7.67
2018-05-01T03:03:52.759Z,7.73
2018-05-01T03:04:18.904Z,7.7
2018-05-01T03:04:45.057Z,7.76
2018-05-01T03:05:11.194Z,7.7
2018-05-01T03:05:37.328Z,7.67
2018-05-01T03:06:03.507Z,7.72
2018-05-01T03:06:29.665Z,7.76
2018-05-01T03:06:55.831Z,7.72
2018-05-01T03:07:21.960Z,7.72
2018-05-01T03:07:48.100Z,7.72
2018-05-01T03:08:14.262Z,7.79
2018-05-01T03:08:40.440Z,7.72
2018-05-01T03:09:06.625Z,7.67
2018-05-01T03:09:32.763Z,7.67
2018-05-01T03:09:58.945Z,7.69
2018-05-01T03:10:25.076Z,7.72
2018-05-01T03:10:51.266Z,7.63
2018-05-01T03:11:17.394Z,7.69
2018-05-01T03:11:43.528Z,7.69
2018-05-01T03:12:09.723Z,7.63
2018-05-01T03:12:35.853Z,7.63
2018-05-01T03:13:02.017Z,7.66
2018-05-01T03:13:28.227Z,7.75
2018-05-01T03:13:54.405Z,7.69
2018-05-01T03:14:20.576Z,7.7
2018-05-01T03:14:46.729Z,7.72
2018-05-01T03:15:12.864Z,7.69
2018-05-01T03:15:39.032Z,7.69
2018-05-01T03:16:05.185Z,7.6
2018-05-01T03:16:31.316Z,7.7
2018-05-01T03:16:57.453Z,7.72
2018-05-01T03:17:23.593Z,7.67
2018-05-01T03:17:49.725Z,7.72
2018-05-01T03:18:15.862Z,7.61
2018-05-01T03:18:41.996Z,7.69
2018-05-01T03:19:08.132Z,7.66
2018-05-01T03:19:34.264Z,7.66
2018-05-01T03:20:00.430Z,7.66
2018-05-01T03:20:26.568Z,7.67
2018-05-01T03:20:52.703Z,7.61
2018-05-01T03:21:18.842Z,7.6
2018-05-01T03:21:44.973Z,7.57
2018-05-01T03:22:11.114Z,7.6
2018-05-01T03:22:37.281Z,7.66
2018-05-01T03:23:03.413Z,7.69
2018-05-01T03:23:29.552Z,7.69
2018-05-01T03:23:55.718Z,7.56
2018-05-01T03:24:21.850Z,7.56
2018-05-01T03:24:48.006Z,7.63
2018-05-01T03:25:14.142Z,7.51
2018-05-01T03:25:40.275Z,7.58
2018-05-01T03:26:06.410Z,7.53
2018-05-01T03:26:32.585Z,7.6
2018-05-01T03:26:58.728Z,7.66
2018-05-01T03:27:24.856Z,7.63
2018-05-01T03:27:51.001Z,7.66
2018-05-01T03:28:17.156Z,7.66
2018-05-01T03:28:43.315Z,7.73
2018-05-01T03:29:09.452Z,7.63
2018-05-01T03:29:35.585Z,7.66
2018-05-01T03:30:01.726Z,7.58
2018-05-01T03:30:27.908Z,7.61
2018-05-01T03:30:54.088Z,7.53
2018-05-01T03:31:20.251Z,7.57
2018-05-01T03:31:46.429Z,7.7
2018-05-01T03:32:12.617Z,7.63
2018-05-01T03:32:38.747Z,7.56
2018-05-01T03:33:04.909Z,7.66
2018-05-01T03:33:31.040Z,7.6
2018-05-01T03:33:57.179Z,7.61
2018-05-01T03:34:23.319Z,7.63
2018-05-01T03:34:49.464Z,7.67
2018-05-01T03:35:15.594Z,7.67
2018-05-01T03:35:41.730Z,7.61
2018-05-01T03:36:07.898Z,7.72
2018-05-01T03:36:34.036Z,7.6
2018-05-01T03:37:00.166Z,7.66
2018-05-01T03:37:26.304Z,7.61
2018-05-01T03:37:52.436Z,7.58
2018-05-01T03:38:18.574Z,7.53
2018-05-01T03:38:44.706Z,7.66
2018-05-01T03:39:10.887Z,7.67
2018-05-01T03:39:36.996Z,7.66
2018-05-01T03:40:03.158Z,7.61
2018-05-01T03:40:29.343Z,7.61
2018-05-01T03:40:55.487Z,7.66
2018-05-01T03:41:21.622Z,7.58
2018-05-01T03:41:47.758Z,7.66
2018-05-01T03:42:13.893Z,7.53
2018-05-01T03:42:40.029Z,7.66
2018-05-01T03:43:06.166Z,7.6
2018-05-01T03:43:32.304Z,7.54
2018-05-01T03:43:58.445Z,7.53
2018-05-01T03:44:24.578Z,7.5
2018-05-01T03:44:50.711Z,7.58
2018-05-01T03:45:16.850Z,7.56
2018-05-01T03:45:42.980Z,7.54
2018-05-01T03:46:09.118Z,7.53
2018-05-01T03:46:35.254Z,7.56
2018-05-01T03:47:01.413Z,7.58
2018-05-01T03:47:27.551Z,7.6
2018-05-01T03:47:53.708Z,7.56
2018-05-01T03:48:19.834Z,7.58
2018-05-01T03:48:45.973Z,7.58
2018-05-01T03:49:12.108Z,7.53
2018-05-01T03:49:38.252Z,7.6
2018-05-01T03:50:04.405Z,7.57
2018-05-01T03:50:30.540Z,7.6
2018-05-01T03:50:56.704Z,7.58
2018-05-01T03:51:22.842Z,7.54
2018-05-01T03:51:48.982Z,7.69
2018-05-01T03:52:15.136Z,7.66
2018-05-01T03:52:41.268Z,7.54
2018-05-01T03:53:07.405Z,7.56
2018-05-01T03:53:33.546Z,7.57
2018-05-01T03:53:59.677Z,7.6
2018-05-01T03:54:25.825Z,7.61
2018-05-01T03:54:51.951Z,7.57
2018-05-01T03:55:18.096Z,7.53
2018-05-01T03:55:44.251Z,7.66
2018-05-01T03:56:10.445Z,7.53
2018-05-01T03:56:36.572Z,7.53
2018-05-01T03:57:02.708Z,7.63
2018-05-01T03:57:28.841Z,7.51
2018-05-01T03:57:54.978Z,7.58
2018-05-01T03:58:21.119Z,7.61
2018-05-01T03:58:47.259Z,7.57
2018-05-01T03:59:13.393Z,7.56
2018-05-01T03:59:39.531Z,7.61
2018-05-01T04:00:05.670Z,7.57
2018-05-01T04:00:31.832Z,7.6
2018-05-01T04:00:58.000Z,7.54
2018-05-01T04:01:24.128Z,7.6
2018-05-01T04:01:50.261Z,7.53
2018-05-01T04:02:16.467Z,7.53
2018-05-01T04:02:42.540Z,7.53
2018-05-01T04:03:08.673Z,7.5
2018-05-01T04:03:34.844Z,7.51
2018-05-01T04:04:00.980Z,7.5
2018-05-01T04:04:27.145Z,7.53
2018-05-01T04:04:53.276Z,7.56
2018-05-01T04:05:19.409Z,7.6
2018-05-01T04:05:45.552Z,7.5
2018-05-01T04:06:11.693Z,7.51
2018-05-01T04:06:37.827Z,7.53
2018-05-01T04:07:03.959Z,7.48
2018-05-01T04:07:30.102Z,7.54
2018-05-01T04:07:56.232Z,7.5
2018-05-01T04:08:22.377Z,7.48
2018-05-01T04:08:48.510Z,7.5
2018-05-01T04:09:14.652Z,7.47
2018-05-01T04:09:40.784Z,7.48
2018-05-01T04:10:06.935Z,7.56
2018-05-01T04:10:33.060Z,7.51
2018-05-01T04:10:59.200Z,7.47
2018-05-01T04:11:25.334Z,7.4
2018-05-01T04:11:51.472Z,7.51
2018-05-01T04:12:17.620Z,7.48
2018-05-01T04:12:43.747Z,7.47
2018-05-01T04:13:09.883Z,7.51
2018-05-01T04:13:36.044Z,7.51
2018-05-01T04:14:02.218Z,7.47
2018-05-01T04:14:28.380Z,7.5
2018-05-01T04:14:54.520Z,7.45
2018-05-01T04:15:20.650Z,7.47
2018-05-01T04:15:46.777Z,7.42
2018-05-01T04:16:12.920Z,7.47
2018-05-01T04:16:39.052Z,7.5
2018-05-01T04:17:05.191Z,7.47
2018-05-01T04:17:31.329Z,7.4
2018-05-01T04:17:57.492Z,7.45
2018-05-01T04:18:23.692Z,7.48
2018-05-01T04:18:49.786Z,7.45
2018-05-01T04:19:15.960Z,7.39
2018-05-01T04:19:42.093Z,7.42
2018-05-01T04:20:08.227Z,7.5
2018-05-01T04:20:34.369Z,7.47
2018-05-01T04:21:00.515Z,7.4
2018-05-01T04:21:26.679Z,7.47
2018-05-01T04:21:52.814Z,7.36
2018-05-01T04:22:18.949Z,7.42
2018-05-01T04:22:45.082Z,7.47
2018-05-01T04:23:11.219Z,7.43
2018-05-01T04:23:37.359Z,7.47
2018-05-01T04:24:03.486Z,7.42
2018-05-01T04:24:29.628Z,7.43
2018-05-01T04:24:55.760Z,7.54
2018-05-01T04:25:21.933Z,7.43
2018-05-01T04:25:48.066Z,7.42
2018-05-01T04:26:14.222Z,7.47
2018-05-01T04:26:40.368Z,7.43
2018-05-01T04:27:06.498Z,7.47
2018-05-01T04:27:32.639Z,7.43
2018-05-01T04:27:58.771Z,7.36
2018-05-01T04:28:24.931Z,7.4
2018-05-01T04:28:51.094Z,7.4
2018-05-01T04:29:17.279Z,7.36
2018-05-01T04:29:43.419Z,7.4
2018-05-01T04:30:09.558Z,7.39
2018-05-01T04:30:35.694Z,7.43
2018-05-01T04:31:01.839Z,7.47
2018-05-01T04:31:27.974Z,7.43
2018-05-01T04:31:54.109Z,7.39
2018-05-01T04:32:20.240Z,7.43
2018-05-01T04:32:46.384Z,7.42
2018-05-01T04:33:12.516Z,7.4
2018-05-01T04:33:38.652Z,7.42
2018-05-01T04:34:04.788Z,7.4
2018-05-01T04:34:30.926Z,7.43
2018-05-01T04:34:57.068Z,7.43
2018-05-01T04:35:23.228Z,7.39
2018-05-01T04:35:49.361Z,7.42
2018-05-01T04:36:15.501Z,7.43
2018-05-01T04:36:41.637Z,7.38
2018-05-01T04:37:07.798Z,7.4
2018-05-01T04:37:33.930Z,7.39
2018-05-01T04:38:00.070Z,7.4
2018-05-01T04:38:26.207Z,7.42
2018-05-01T04:38:52.356Z,7.38
2018-05-01T04:39:18.482Z,7.4
2018-05-01T04:39:44.647Z,7.5
2018-05-01T04:40:11.600Z,7.39
2018-05-01T04:40:37.760Z,7.43
2018-05-01T04:41:03.927Z,7.38
2018-05-01T04:41:30.081Z,7.47
2018-05-01T04:41:56.257Z,7.42
2018-05-01T04:42:22.391Z,7.42
2018-05-01T04:42:48.531Z,7.42
2018-05-01T04:43:14.663Z,7.38
2018-05-01T04:43:40.805Z,7.53
2018-05-01T04:44:06.938Z,7.45
2018-05-01T04:44:33.131Z,7.42
2018-05-01T04:44:59.235Z,7.45
2018-05-01T04:45:25.408Z,7.45
2018-05-01T04:45:51.543Z,7.45
2018-05-01T04:46:17.679Z,7.43
2018-05-01T04:46:43.820Z,7.4
2018-05-01T04:47:09.953Z,7.43
2018-05-01T04:47:36.109Z,7.45
2018-05-01T04:48:02.245Z,7.43
2018-05-01T04:48:28.378Z,7.47
2018-05-01T04:48:54.519Z,7.42
2018-05-01T04:49:20.685Z,7.4
2018-05-01T04:49:46.821Z,7.45
2018-05-01T04:50:12.977Z,7.47
2018-05-01T04:50:39.110Z,7.47
2018-05-01T04:51:05.285Z,7.47
2018-05-01T04:51:31.390Z,7.45
2018-05-01T04:51:57.527Z,7.5
2018-05-01T04:52:23.683Z,7.45
2018-05-01T04:52:49.821Z,7.39
2018-05-01T04:53:15.959Z,7.47
2018-05-01T04:53:42.093Z,7.5
2018-05-01T04:54:08.273Z,7.39
2018-05-01T04:54:34.415Z,7.43
2018-05-01T04:55:00.550Z,7.39
2018-05-01T04:55:26.681Z,7.39
2018-05-01T04:55:52.817Z,7.51
2018-05-01T04:56:18.977Z,7.5
2018-05-01T04:56:45.122Z,7.42
2018-05-01T04:57:11.261Z,7.51
2018-05-01T04:57:37.397Z,7.51
2018-05-01T04:58:03.535Z,7.48
2018-05-01T04:58:29.711Z,7.48
2018-05-01T04:58:55.855Z,7.56
2018-05-01T04:59:22.012Z,7.57
2018-05-01T04:59:48.152Z,7.58
2018-05-01T05:00:14.282Z,7.53
2018-05-01T05:00:40.425Z,7.57
2018-05-01T05:01:06.589Z,7.53
2018-05-01T05:01:32.743Z,7.67
2018-05-01T05:01:58.923Z,7.6
2018-05-01T05:02:25.066Z,7.6
2018-05-01T05:02:51.206Z,7.53
2018-05-01T05:03:17.342Z,7.51
2018-05-01T05:03:43.500Z,7.56
2018-05-01T05:04:09.633Z,7.61
2018-05-01T05:04:35.778Z,7.58
2018-05-01T05:05:01.907Z,7.51
2018-05-01T05:05:28.047Z,7.6
2018-05-01T05:05:54.184Z,7.56
2018-05-01T05:06:20.329Z,7.61
2018-05-01T05:06:46.467Z,7.57
2018-05-01T05:07:12.603Z,7.57
2018-05-01T05:07:38.737Z,7.54
2018-05-01T05:08:04.876Z,7.57
2018-05-01T05:08:31.007Z,7.53
2018-05-01T05:08:57.144Z,7.51
2018-05-01T05:09:23.293Z,7.53
2018-05-01T05:09:49.442Z,7.47
2018-05-01T05:10:15.577Z,7.51
2018-05-01T05:10:41.713Z,7.57
2018-05-01T05:11:07.881Z,7.51
2018-05-01T05:11:34.036Z,7.53
2018-05-01T05:12:00.178Z,7.45
2018-05-01T05:12:26.309Z,7.48
2018-05-01T05:12:52.449Z,7.48
2018-05-01T05:13:18.584Z,7.43
2018-05-01T05:13:44.721Z,7.42
2018-05-01T05:14:10.882Z,7.48
2018-05-01T05:14:37.016Z,7.48
2018-05-01T05:15:03.162Z,7.43
2018-05-01T05:15:29.297Z,7.4
2018-05-01T05:15:55.433Z,7.38
2018-05-01T05:16:21.574Z,7.4
2018-05-01T05:16:47.712Z,7.39
2018-05-01T05:17:13.850Z,7.36
2018-05-01T05:17:39.991Z,7.42
2018-05-01T05:18:06.134Z,7.42
2018-05-01T05:18:32.270Z,7.43
2018-05-01T05:18:58.426Z,7.39
2018-05-01T05:19:24.568Z,7.4
2018-05-01T05:19:50.701Z,7.45
2018-05-01T05:20:16.834Z,7.45
2018-05-01T05:20:42.969Z,7.42
2018-05-01T05:21:09.157Z,7.51
2018-05-01T05:21:35.301Z,7.51
2018-05-01T05:22:01.440Z,7.5
2018-05-01T05:22:27.604Z,7.53
2018-05-01T05:22:53.739Z,7.53
2018-05-01T05:23:19.884Z,7.5
2018-05-01T05:23:46.022Z,7.53
2018-05-01T05:24:12.182Z,7.57
2018-05-01T05:24:38.331Z,7.51
2018-05-01T05:25:04.461Z,7.47
2018-05-01T05:25:30.602Z,7.53
2018-05-01T05:25:56.763Z,7.53
2018-05-01T05:26:22.895Z,7.56
2018-05-01T05:26:49.049Z,7.53
2018-05-01T05:27:15.193Z,7.58
2018-05-01T05:27:41.351Z,7.6
2018-05-01T05:28:07.488Z,7.58
2018-05-01T05:28:33.622Z,7.63
2018-05-01T05:28:59.922Z,7.61
2018-05-01T05:29:25.989Z,7.58
2018-05-01T05:29:52.134Z,7.63
2018-05-01T05:30:18.289Z,7.58
2018-05-01T05:30:44.425Z,7.63
2018-05-01T05:31:10.590Z,7.67
2018-05-01T05:31:36.727Z,7.67
2018-05-01T05:32:02.867Z,7.61
2018-05-01T05:32:29.031Z,7.69
2018-05-01T05:32:55.161Z,7.61
2018-05-01T05:33:21.315Z,7.58
2018-05-01T05:33:47.445Z,7.67
2018-05-01T05:34:13.584Z,7.67
2018-05-01T05:34:40.723Z,7.72
2018-05-01T05:35:06.858Z,7.61
2018-05-01T05:35:32.998Z,7.69
2018-05-01T05:35:59.134Z,7.7
2018-05-01T05:36:25.319Z,7.73
2018-05-01T05:36:51.403Z,7.7
2018-05-01T05:37:17.543Z,7.69
2018-05-01T05:37:43.714Z,7.7
2018-05-01T05:38:09.845Z,7.67
2018-05-01T05:38:35.981Z,7.72
2018-05-01T05:39:02.118Z,7.7
2018-05-01T05:39:28.260Z,7.67
2018-05-01T05:39:54.414Z,7.67
2018-05-01T05:40:20.575Z,7.73
2018-05-01T05:40:46.735Z,7.63
2018-05-01T05:41:12.876Z,7.69
2018-05-01T05:41:39.033Z,7.7
2018-05-01T05:42:05.170Z,7.67
2018-05-01T05:42:31.313Z,7.67
2018-05-01T05:42:57.467Z,7.69
2018-05-01T05:43:23.609Z,7.69
2018-05-01T05:43:49.840Z,7.67
2018-05-01T05:44:16.024Z,7.67
2018-05-01T05:44:42.150Z,7.72
2018-05-01T05:45:08.297Z,7.7
2018-05-01T05:45:34.437Z,7.73
2018-05-01T05:46:00.574Z,7.72
2018-05-01T05:46:26.716Z,7.75
2018-05-01T05:46:52.862Z,7.67
2018-05-01T05:47:18.997Z,7.79
2018-05-01T05:47:45.134Z,7.72
2018-05-01T05:48:11.297Z,7.67
2018-05-01T05:48:37.435Z,7.7
2018-05-01T05:49:03.602Z,7.77
2018-05-01T05:49:29.732Z,7.77
2018-05-01T05:49:55.911Z,7.75
2018-05-01T05:50:22.057Z,7.77